CheckWX is a tool to help pilots better visualize weather data.  It is not intended as a substitute for an official pre-flight weather briefing.

12:25:58 UTC

KINS TAF
Creech AFB Airport
Indian Springs, Nevada, USA
TAF AMD KINS 221047Z 2210/2312 VRB06KT 9999 SCT060 QNH3001INS TEMPO 2210/2215 BKN060 620601 BECMG 2217/2218 26012KT 9999 FEW060 QNH3003INS BECMG 2222/2223 28012G20KT 9999 FEW080 FEW180 QNH3002INS BECMG 2302/2303 VRB06KT 9999 BKN150 QNH3004INS TX17/2300Z TN04/2213Z

Mar-22@
10:00 UTC

Mar-22 @ 10:00 UTC

Mar-22@
17:00 UTC

Mar-22 @ 17:00 UTC

TAF AMD KINS 221047Z 2210/2312 VRB06KT 9999 SCT060 QNH3001INS
Wind
  • Variable at 6 KTS
Cloud Levels
  • Scattered at 6,000' AGL

Mar-22@
10:00 UTC

Mar-22 @ 10:00 UTC

Mar-22@
15:00 UTC

Mar-22 @ 15:00 UTC

TEMPO 2210/2215 BKN060 620601

Temporary

Temporary Changes expected for less than half the time period

Wind
  • 206° at 1 KTS
Cloud Levels
  • Broken at 6,000' AGL

Mar-22@
17:00 UTC

Mar-22 @ 17:00 UTC

Mar-22@
22:00 UTC

Mar-22 @ 22:00 UTC

BECMG 2217/2218 26012KT 9999 FEW060 QNH3003INS

Becoming

Becoming Conditions expected by Fri, Mar 22, 2019 @ 18:00 UTC

Wind
  • 260° at 12 KTS
Cloud Levels
  • Few at 6,000' AGL

Mar-22@
22:00 UTC

Mar-22 @ 22:00 UTC

Mar-23@
02:00 UTC

Mar-23 @ 02:00 UTC

BECMG 2222/2223 28012G20KT 9999 FEW080 FEW180 QNH3002INS

Becoming

Becoming Conditions expected by Fri, Mar 22, 2019 @ 23:00 UTC

Wind
  • 280° at 12 KTS
  • {Gusting to 20 KTS
Cloud Levels
  • Few at 8,000' AGL
  • Few at 18,000' AGL

Mar-23@
02:00 UTC

Mar-23 @ 02:00 UTC

Mar-23@
12:00 UTC

Mar-23 @ 12:00 UTC

BECMG 2302/2303 VRB06KT 9999 BKN150 QNH3004INS TX17/2300Z TN04/2213Z

Becoming

Becoming Conditions expected by Sat, Mar 23, 2019 @ 03:00 UTC

Wind
  • Variable at 6 KTS
Cloud Levels
  • Broken at 15,000' AGL